createdAt,value
2018-12-07T00:00:06.702Z,1022.85854337
2018-12-07T00:00:19.113Z,1022.85854337
2018-12-07T00:00:31.499Z,1022.85854337
2018-12-07T00:00:43.921Z,1022.85854337
2018-12-07T00:00:56.317Z,1022.85854337
2018-12-07T00:01:08.704Z,1022.82467949
2018-12-07T00:01:21.088Z,1022.82467949
2018-12-07T00:01:33.461Z,1022.82467949
2018-12-07T00:01:45.946Z,1022.82467949
2018-12-07T00:01:58.478Z,1022.82467949
2018-12-07T00:02:10.848Z,1022.79081561
2018-12-07T00:02:23.221Z,1022.79081561
2018-12-07T00:02:35.620Z,1022.79081561
2018-12-07T00:02:48.016Z,1022.79081561
2018-12-07T00:03:00.379Z,1022.79081561
2018-12-07T00:03:12.814Z,1022.72308784
2018-12-07T00:03:25.176Z,1022.72308784
2018-12-07T00:03:37.582Z,1022.72308784
2018-12-07T00:03:49.958Z,1022.72308784
2018-12-07T00:04:02.410Z,1022.72308784
2018-12-07T00:04:14.867Z,1022.72308784
2018-12-07T00:04:27.261Z,1022.72308784
2018-12-07T00:04:39.627Z,1022.72308784
2018-12-07T00:04:52.016Z,1022.72308784
2018-12-07T00:05:04.402Z,1022.68922396
2018-12-07T00:05:16.774Z,1022.68922396
2018-12-07T00:05:29.145Z,1022.68922396
2018-12-07T00:05:41.546Z,1022.68922396
2018-12-07T00:05:53.896Z,1022.68922396
2018-12-07T00:06:06.291Z,1022.68922396
2018-12-07T00:06:18.703Z,1022.68922396
2018-12-07T00:06:31.176Z,1022.68922396
2018-12-07T00:06:43.683Z,1022.68922396
2018-12-07T00:06:56.058Z,1022.68922396
2018-12-07T00:07:08.421Z,1022.75695173
2018-12-07T00:07:20.813Z,1022.75695173
2018-12-07T00:07:33.176Z,1022.75695173
2018-12-07T00:07:45.570Z,1022.75695173
2018-12-07T00:07:57.942Z,1022.75695173
2018-12-07T00:08:10.303Z,1022.72308784
2018-12-07T00:08:22.668Z,1022.72308784
2018-12-07T00:08:35.065Z,1022.72308784
2018-12-07T00:08:48.611Z,1022.72308784
2018-12-07T00:09:01.222Z,1022.72308784
2018-12-07T00:09:13.716Z,1022.72308784
2018-12-07T00:09:26.105Z,1022.72308784
2018-12-07T00:09:38.491Z,1022.72308784
2018-12-07T00:09:50.889Z,1022.72308784
2018-12-07T00:10:03.276Z,1022.65536008
2018-12-07T00:10:15.674Z,1022.65536008
2018-12-07T00:10:28.067Z,1022.65536008
2018-12-07T00:10:40.467Z,1022.65536008
2018-12-07T00:10:52.851Z,1022.65536008
2018-12-07T00:11:05.275Z,1022.65536008
2018-12-07T00:11:17.662Z,1022.65536008
2018-12-07T00:11:30.056Z,1022.65536008
2018-12-07T00:11:42.442Z,1022.65536008
2018-12-07T00:11:54.807Z,1022.65536008
2018-12-07T00:12:07.200Z,1022.65536008
2018-12-07T00:12:19.579Z,1022.65536008
2018-12-07T00:12:31.963Z,1022.65536008
2018-12-07T00:12:44.338Z,1022.65536008
2018-12-07T00:12:56.734Z,1022.65536008
2018-12-07T00:13:09.225Z,1022.65536008
2018-12-07T00:13:21.733Z,1022.65536008
2018-12-07T00:13:34.137Z,1022.65536008
2018-12-07T00:13:46.507Z,1022.65536008
2018-12-07T00:13:58.888Z,1022.65536008
2018-12-07T00:14:11.272Z,1022.6214962
2018-12-07T00:14:24.658Z,1022.6214962
2018-12-07T00:14:37.043Z,1022.6214962
2018-12-07T00:14:49.401Z,1022.6214962
2018-12-07T00:15:01.831Z,1022.6214962
2018-12-07T00:15:14.242Z,1022.6214962
2018-12-07T00:15:26.629Z,1022.6214962
2018-12-07T00:15:39.021Z,1022.6214962
2018-12-07T00:15:51.408Z,1022.6214962
2018-12-07T00:16:03.774Z,1022.65536008
2018-12-07T00:16:16.156Z,1022.65536008
2018-12-07T00:16:28.516Z,1022.65536008
2018-12-07T00:16:40.886Z,1022.65536008
2018-12-07T00:16:53.246Z,1022.65536008
2018-12-07T00:17:05.668Z,1022.6214962
2018-12-07T00:17:18.024Z,1022.6214962
2018-12-07T00:17:30.436Z,1022.6214962
2018-12-07T00:17:42.820Z,1022.6214962
2018-12-07T00:17:55.186Z,1022.6214962
2018-12-07T00:18:07.547Z,1022.58763232
2018-12-07T00:18:19.930Z,1022.58763232
2018-12-07T00:18:32.468Z,1022.58763232
2018-12-07T00:18:44.831Z,1022.58763232
2018-12-07T00:18:57.201Z,1022.58763232
2018-12-07T00:19:09.584Z,1022.58763232
2018-12-07T00:19:21.950Z,1022.58763232
2018-12-07T00:19:34.685Z,1022.58763232
2018-12-07T00:19:54.658Z,1022.58763232
2018-12-07T00:20:07.045Z,1022.6214962
2018-12-07T00:20:19.424Z,1022.6214962
2018-12-07T00:20:31.972Z,1022.6214962
2018-12-07T00:20:44.337Z,1022.6214962
2018-12-07T00:20:56.764Z,1022.6214962
2018-12-07T00:21:09.146Z,1022.58763232
2018-12-07T00:21:21.516Z,1022.58763232
2018-12-07T00:21:33.890Z,1022.58763232
2018-12-07T00:21:46.338Z,1022.58763232
2018-12-07T00:21:58.735Z,1022.58763232
2018-12-07T00:22:11.089Z,1022.55376844
2018-12-07T00:22:23.466Z,1022.55376844
2018-12-07T00:22:35.929Z,1022.55376844
2018-12-07T00:22:48.310Z,1022.55376844
2018-12-07T00:23:00.776Z,1022.48604067
2018-12-07T00:23:13.165Z,1022.48604067
2018-12-07T00:23:25.540Z,1022.48604067
2018-12-07T00:23:37.901Z,1022.48604067
2018-12-07T00:23:50.254Z,1022.48604067
2018-12-07T00:24:02.619Z,1022.55376844
2018-12-07T00:24:14.999Z,1022.55376844
2018-12-07T00:24:27.377Z,1022.55376844
2018-12-07T00:24:39.742Z,1022.55376844
2018-12-07T00:24:52.098Z,1022.55376844
2018-12-07T00:25:04.462Z,1022.65536008
2018-12-07T00:25:16.887Z,1022.65536008
2018-12-07T00:25:29.265Z,1022.65536008
2018-12-07T00:25:41.703Z,1022.65536008
2018-12-07T00:25:54.826Z,1022.65536008
2018-12-07T00:26:07.211Z,1022.51990455
2018-12-07T00:26:19.820Z,1022.51990455
2018-12-07T00:26:32.318Z,1022.51990455
2018-12-07T00:26:44.673Z,1022.51990455
2018-12-07T00:26:57.062Z,1022.51990455
2018-12-07T00:27:09.423Z,1022.58763232
2018-12-07T00:27:21.931Z,1022.58763232
2018-12-07T00:27:34.286Z,1022.58763232
2018-12-07T00:27:46.655Z,1022.58763232
2018-12-07T00:27:59.005Z,1022.58763232
2018-12-07T00:28:11.380Z,1022.58763232
2018-12-07T00:28:23.743Z,1022.58763232
2018-12-07T00:28:36.126Z,1022.58763232
2018-12-07T00:28:48.682Z,1022.58763232
2018-12-07T00:29:01.044Z,1022.48604067
2018-12-07T00:29:13.406Z,1022.48604067
2018-12-07T00:29:25.788Z,1022.48604067
2018-12-07T00:29:38.160Z,1022.48604067
2018-12-07T00:29:50.528Z,1022.48604067
2018-12-07T00:30:02.912Z,1022.48604067
2018-12-07T00:30:15.282Z,1022.48604067
2018-12-07T00:30:28.067Z,1022.48604067
2018-12-07T00:30:40.590Z,1022.48604067
2018-12-07T00:30:52.951Z,1022.48604067
2018-12-07T00:31:05.311Z,1022.48604067
2018-12-07T00:31:17.688Z,1022.48604067
2018-12-07T00:31:31.214Z,1022.48604067
2018-12-07T00:31:43.643Z,1022.48604067
2018-12-07T00:31:56.033Z,1022.48604067
2018-12-07T00:32:08.409Z,1022.51990455
2018-12-07T00:32:20.918Z,1022.51990455
2018-12-07T00:32:33.357Z,1022.51990455
2018-12-07T00:32:45.718Z,1022.51990455
2018-12-07T00:32:58.210Z,1022.51990455
2018-12-07T00:33:10.602Z,1022.45217679
2018-12-07T00:33:22.991Z,1022.45217679
2018-12-07T00:33:35.348Z,1022.45217679
2018-12-07T00:33:47.782Z,1022.45217679
2018-12-07T00:34:00.156Z,1022.45217679
2018-12-07T00:34:12.513Z,1022.41831291
2018-12-07T00:34:24.877Z,1022.41831291
2018-12-07T00:34:37.240Z,1022.41831291
2018-12-07T00:34:49.813Z,1022.41831291
2018-12-07T00:35:02.211Z,1022.38444903
2018-12-07T00:35:14.594Z,1022.38444903
2018-12-07T00:35:26.982Z,1022.38444903
2018-12-07T00:35:39.351Z,1022.38444903
2018-12-07T00:35:51.718Z,1022.38444903
2018-12-07T00:36:04.078Z,1022.38444903
2018-12-07T00:36:16.442Z,1022.38444903
2018-12-07T00:36:28.821Z,1022.38444903
2018-12-07T00:36:41.201Z,1022.38444903
2018-12-07T00:36:53.646Z,1022.38444903
2018-12-07T00:37:06.099Z,1022.2489935
2018-12-07T00:37:18.463Z,1022.2489935
2018-12-07T00:37:30.937Z,1022.2489935
2018-12-07T00:37:43.338Z,1022.2489935
2018-12-07T00:37:55.732Z,1022.2489935
2018-12-07T00:38:08.096Z,1022.2489935
2018-12-07T00:38:20.464Z,1022.2489935
2018-12-07T00:38:32.859Z,1022.2489935
2018-12-07T00:38:45.239Z,1022.2489935
2018-12-07T00:38:57.587Z,1022.2489935
2018-12-07T00:39:09.996Z,1022.28285738
2018-12-07T00:39:22.374Z,1022.28285738
2018-12-07T00:39:34.732Z,1022.28285738
2018-12-07T00:39:47.122Z,1022.28285738
2018-12-07T00:39:59.474Z,1022.28285738
2018-12-07T00:40:11.839Z,1022.21512962
2018-12-07T00:40:24.221Z,1022.21512962
2018-12-07T00:40:36.581Z,1022.21512962
2018-12-07T00:40:48.953Z,1022.21512962
2018-12-07T00:41:01.359Z,1022.2489935
2018-12-07T00:41:13.985Z,1022.2489935
2018-12-07T00:41:26.336Z,1022.2489935
2018-12-07T00:41:38.696Z,1022.2489935
2018-12-07T00:41:51.048Z,1022.2489935
2018-12-07T00:42:03.603Z,1022.28285738
2018-12-07T00:42:16.060Z,1022.28285738
2018-12-07T00:42:28.453Z,1022.28285738
2018-12-07T00:42:40.820Z,1022.28285738
2018-12-07T00:42:53.194Z,1022.28285738
2018-12-07T00:43:05.566Z,1022.28285738
2018-12-07T00:43:17.937Z,1022.28285738
2018-12-07T00:43:30.289Z,1022.28285738
2018-12-07T00:43:42.641Z,1022.28285738
2018-12-07T00:43:54.996Z,1022.28285738
2018-12-07T00:44:07.356Z,1022.31672127
2018-12-07T00:44:19.722Z,1022.31672127
2018-12-07T00:44:32.091Z,1022.31672127
2018-12-07T00:44:44.477Z,1022.31672127
2018-12-07T00:44:58.583Z,1022.31672127
2018-12-07T00:45:10.951Z,1022.28285738
2018-12-07T00:45:23.305Z,1022.28285738
2018-12-07T00:45:35.683Z,1022.28285738
2018-12-07T00:45:48.056Z,1022.28285738
2018-12-07T00:46:00.429Z,1022.28285738
2018-12-07T00:46:12.849Z,1022.28285738
2018-12-07T00:46:25.298Z,1022.28285738
2018-12-07T00:46:37.787Z,1022.28285738
2018-12-07T00:46:50.138Z,1022.28285738
2018-12-07T00:47:02.515Z,1022.31672127
2018-12-07T00:47:14.934Z,1022.31672127
2018-12-07T00:47:27.379Z,1022.31672127
2018-12-07T00:47:39.746Z,1022.31672127
2018-12-07T00:47:52.192Z,1022.31672127
2018-12-07T00:48:04.581Z,1022.38444903
2018-12-07T00:48:16.954Z,1022.38444903
2018-12-07T00:48:29.397Z,1022.38444903
2018-12-07T00:48:41.975Z,1022.38444903
2018-12-07T00:48:54.344Z,1022.38444903
2018-12-07T00:49:06.708Z,1022.38444903
2018-12-07T00:49:19.054Z,1022.38444903
2018-12-07T00:49:31.404Z,1022.38444903
2018-12-07T00:49:43.777Z,1022.38444903
2018-12-07T00:49:56.200Z,1022.38444903
2018-12-07T00:50:08.746Z,1022.35058515
2018-12-07T00:50:21.116Z,1022.35058515
2018-12-07T00:50:33.499Z,1022.35058515
2018-12-07T00:50:46.063Z,1022.35058515
2018-12-07T00:50:58.419Z,1022.35058515
2018-12-07T00:51:10.775Z,1022.38444903
2018-12-07T00:51:23.160Z,1022.38444903
2018-12-07T00:51:35.527Z,1022.38444903
2018-12-07T00:51:48.064Z,1022.38444903
2018-12-07T00:52:00.417Z,1022.38444903
2018-12-07T00:52:12.793Z,1022.41831291
2018-12-07T00:52:25.146Z,1022.41831291
2018-12-07T00:52:37.555Z,1022.41831291
2018-12-07T00:52:49.919Z,1022.41831291
2018-12-07T00:53:02.323Z,1022.31672127
2018-12-07T00:53:14.705Z,1022.31672127
2018-12-07T00:53:27.073Z,1022.31672127
2018-12-07T00:53:39.424Z,1022.31672127
2018-12-07T00:53:51.794Z,1022.31672127
2018-12-07T00:54:04.187Z,1022.41831291
2018-12-07T00:54:16.556Z,1022.41831291
2018-12-07T00:54:28.954Z,1022.41831291
2018-12-07T00:54:41.313Z,1022.41831291
2018-12-07T00:54:53.878Z,1022.41831291
2018-12-07T00:55:06.320Z,1022.35058515
2018-12-07T00:55:18.694Z,1022.35058515
2018-12-07T00:55:31.151Z,1022.35058515
2018-12-07T00:55:43.608Z,1022.35058515
2018-12-07T00:55:55.996Z,1022.35058515
2018-12-07T00:56:08.427Z,1022.41831291
2018-12-07T00:56:20.819Z,1022.41831291
2018-12-07T00:56:33.176Z,1022.41831291
2018-12-07T00:56:45.589Z,1022.41831291
2018-12-07T00:56:57.953Z,1022.41831291
2018-12-07T00:57:10.321Z,1022.21512962
2018-12-07T00:57:22.679Z,1022.21512962
2018-12-07T00:57:35.055Z,1022.21512962
2018-12-07T00:57:47.400Z,1022.21512962
2018-12-07T00:57:59.762Z,1022.21512962
2018-12-07T00:58:12.121Z,1022.35058515
2018-12-07T00:58:24.646Z,1022.35058515
2018-12-07T00:58:37.003Z,1022.35058515
2018-12-07T00:58:49.399Z,1022.35058515
2018-12-07T00:59:01.840Z,1022.35058515
2018-12-07T00:59:14.221Z,1022.35058515
2018-12-07T00:59:26.576Z,1022.35058515
2018-12-07T00:59:38.954Z,1022.35058515
2018-12-07T00:59:51.315Z,1022.35058515
2018-12-07T01:00:03.875Z,1022.28285738
2018-12-07T01:00:16.257Z,1022.28285738
2018-12-07T01:00:28.645Z,1022.28285738
2018-12-07T01:00:41.029Z,1022.28285738
2018-12-07T01:00:53.413Z,1022.28285738
2018-12-07T01:01:05.788Z,1022.2489935
2018-12-07T01:01:18.256Z,1022.2489935
2018-12-07T01:01:30.720Z,1022.2489935
2018-12-07T01:01:43.089Z,1022.2489935
2018-12-07T01:01:55.602Z,1022.2489935
2018-12-07T01:02:07.968Z,1022.21512962
2018-12-07T01:02:20.393Z,1022.21512962
2018-12-07T01:02:32.747Z,1022.21512962
2018-12-07T01:02:45.125Z,1022.21512962
2018-12-07T01:02:57.503Z,1022.21512962
2018-12-07T01:03:09.868Z,1022.11353798
2018-12-07T01:03:22.510Z,1022.11353798
2018-12-07T01:03:34.862Z,1022.11353798
2018-12-07T01:03:47.222Z,1022.11353798
2018-12-07T01:03:59.596Z,1022.11353798
2018-12-07T01:04:11.951Z,1022.07967409
2018-12-07T01:04:24.319Z,1022.07967409
2018-12-07T01:04:36.670Z,1022.07967409
2018-12-07T01:04:49.025Z,1022.07967409
2018-12-07T01:05:01.434Z,1022.14740186
2018-12-07T01:05:13.921Z,1022.14740186
2018-12-07T01:05:26.337Z,1022.14740186
2018-12-07T01:05:38.711Z,1022.14740186
2018-12-07T01:05:51.123Z,1022.14740186
2018-12-07T01:06:03.490Z,1022.04581021
2018-12-07T01:06:15.844Z,1022.04581021
2018-12-07T01:06:28.236Z,1022.04581021
2018-12-07T01:06:40.622Z,1022.04581021
2018-12-07T01:06:52.983Z,1022.04581021
2018-12-07T01:07:05.367Z,1022.07967409
2018-12-07T01:07:17.730Z,1022.07967409
2018-12-07T01:07:30.133Z,1022.07967409
2018-12-07T01:07:42.489Z,1022.07967409
2018-12-07T01:07:54.897Z,1022.07967409
2018-12-07T01:08:07.263Z,1021.97808245
2018-12-07T01:08:19.615Z,1021.97808245
2018-12-07T01:08:32.041Z,1021.97808245
2018-12-07T01:08:44.414Z,1021.97808245
2018-12-07T01:08:56.803Z,1021.97808245
2018-12-07T01:09:09.160Z,1021.94421857
2018-12-07T01:09:21.628Z,1021.94421857
2018-12-07T01:09:33.991Z,1021.94421857
2018-12-07T01:09:46.410Z,1021.94421857
2018-12-07T01:09:58.797Z,1021.94421857
2018-12-07T01:10:11.155Z,1021.97808245
2018-12-07T01:10:23.521Z,1021.97808245
2018-12-07T01:10:35.881Z,1021.97808245
2018-12-07T01:10:48.273Z,1021.97808245
2018-12-07T01:11:00.614Z,1022.04581021
2018-12-07T01:11:12.975Z,1022.04581021
2018-12-07T01:11:25.548Z,1022.04581021
2018-12-07T01:11:37.918Z,1022.04581021
2018-12-07T01:11:50.281Z,1022.04581021
2018-12-07T01:12:02.646Z,1021.94421857
2018-12-07T01:12:15.045Z,1021.94421857
2018-12-07T01:12:27.407Z,1021.94421857
2018-12-07T01:12:39.803Z,1021.94421857
2018-12-07T01:12:52.339Z,1021.94421857
2018-12-07T01:13:04.718Z,1022.01194633
2018-12-07T01:13:17.075Z,1022.01194633
2018-12-07T01:13:29.444Z,1022.01194633
2018-12-07T01:13:41.798Z,1022.01194633
2018-12-07T01:13:54.308Z,1022.01194633
2018-12-07T01:14:06.698Z,1021.91035469
2018-12-07T01:14:19.093Z,1021.91035469
2018-12-07T01:14:31.439Z,1021.91035469
2018-12-07T01:14:43.825Z,1021.91035469
2018-12-07T01:14:56.213Z,1021.91035469
2018-12-07T01:15:08.582Z,1021.94421857
2018-12-07T01:15:20.952Z,1021.94421857
2018-12-07T01:15:33.334Z,1021.94421857
2018-12-07T01:15:45.687Z,1021.94421857
2018-12-07T01:15:58.185Z,1021.94421857
2018-12-07T01:16:10.544Z,1022.01194633
2018-12-07T01:16:22.904Z,1022.01194633
2018-12-07T01:16:35.273Z,1022.01194633
2018-12-07T01:16:47.670Z,1022.01194633
2018-12-07T01:17:00.038Z,1022.01194633
2018-12-07T01:17:12.423Z,1021.94421857
2018-12-07T01:17:24.767Z,1021.94421857
2018-12-07T01:17:37.130Z,1021.94421857
2018-12-07T01:17:49.485Z,1021.94421857
2018-12-07T01:18:01.867Z,1021.94421857
2018-12-07T01:18:14.240Z,1021.94421857
2018-12-07T01:18:26.630Z,1021.94421857
2018-12-07T01:18:38.983Z,1021.94421857
2018-12-07T01:18:51.355Z,1021.94421857
2018-12-07T01:19:03.712Z,1021.94421857
2018-12-07T01:19:16.096Z,1021.94421857
2018-12-07T01:19:28.590Z,1021.94421857
2018-12-07T01:19:40.957Z,1021.94421857
2018-12-07T01:19:53.314Z,1021.94421857
2018-12-07T01:20:05.669Z,1021.97808245
2018-12-07T01:20:18.020Z,1021.97808245
2018-12-07T01:20:30.462Z,1021.97808245
2018-12-07T01:20:42.897Z,1021.97808245
2018-12-07T01:20:55.273Z,1021.97808245
2018-12-07T01:21:07.637Z,1022.01194633
2018-12-07T01:21:19.997Z,1022.01194633
2018-12-07T01:21:32.374Z,1022.01194633
2018-12-07T01:21:44.730Z,1022.01194633
2018-12-07T01:21:57.141Z,1022.01194633
2018-12-07T01:22:09.492Z,1021.94421857
2018-12-07T01:22:21.856Z,1021.94421857
2018-12-07T01:22:34.216Z,1021.94421857
2018-12-07T01:22:46.576Z,1021.94421857
2018-12-07T01:22:58.929Z,1021.94421857
2018-12-07T01:23:11.302Z,1021.91035469
2018-12-07T01:23:23.664Z,1021.91035469
2018-12-07T01:23:36.118Z,1021.91035469
2018-12-07T01:23:48.473Z,1021.91035469
2018-12-07T01:24:00.825Z,1021.91035469
2018-12-07T01:24:13.192Z,1021.91035469
2018-12-07T01:24:25.546Z,1021.91035469
2018-12-07T01:24:37.893Z,1021.91035469
2018-12-07T01:24:50.277Z,1021.91035469
2018-12-07T01:25:02.637Z,1021.91035469
2018-12-07T01:25:15.003Z,1021.91035469
2018-12-07T01:25:27.365Z,1021.91035469
2018-12-07T01:25:39.820Z,1021.91035469
2018-12-07T01:25:52.191Z,1021.91035469
2018-12-07T01:26:04.726Z,1021.80876304
2018-12-07T01:26:17.288Z,1021.80876304
2018-12-07T01:26:29.774Z,1021.80876304
2018-12-07T01:26:42.127Z,1021.80876304
2018-12-07T01:26:54.502Z,1021.80876304
2018-12-07T01:27:06.858Z,1021.84262692
2018-12-07T01:27:19.222Z,1021.84262692
2018-12-07T01:27:31.752Z,1021.84262692
2018-12-07T01:27:44.149Z,1021.84262692
2018-12-07T01:27:56.497Z,1021.84262692
2018-12-07T01:28:08.870Z,1021.84262692
2018-12-07T01:28:21.221Z,1021.84262692
2018-12-07T01:28:33.566Z,1021.84262692
2018-12-07T01:28:45.929Z,1021.84262692
2018-12-07T01:28:58.298Z,1021.84262692
2018-12-07T01:29:10.644Z,1021.94421857
2018-12-07T01:29:23.028Z,1021.94421857
2018-12-07T01:29:35.396Z,1021.94421857
2018-12-07T01:29:47.774Z,1021.94421857
2018-12-07T01:30:00.141Z,1021.94421857
2018-12-07T01:30:12.540Z,1021.84262692
2018-12-07T01:30:24.995Z,1021.84262692
2018-12-07T01:30:37.498Z,1021.84262692
2018-12-07T01:30:49.859Z,1021.84262692
2018-12-07T01:31:02.243Z,1021.80876304
2018-12-07T01:31:14.609Z,1021.80876304
2018-12-07T01:31:26.988Z,1021.80876304
2018-12-07T01:31:39.377Z,1021.80876304
2018-12-07T01:31:51.771Z,1021.80876304
2018-12-07T01:32:04.149Z,1021.8764908
2018-12-07T01:32:16.612Z,1021.8764908
2018-12-07T01:32:28.983Z,1021.8764908
2018-12-07T01:32:41.357Z,1021.8764908
2018-12-07T01:32:53.714Z,1021.8764908
2018-12-07T01:33:06.105Z,1021.74103528
2018-12-07T01:33:18.540Z,1021.74103528
2018-12-07T01:33:30.917Z,1021.74103528
2018-12-07T01:33:43.274Z,1021.74103528
2018-12-07T01:33:55.738Z,1021.74103528
2018-12-07T01:34:08.103Z,1021.84262692
2018-12-07T01:34:20.493Z,1021.84262692
2018-12-07T01:34:32.950Z,1021.84262692
2018-12-07T01:34:45.434Z,1021.84262692
2018-12-07T01:34:57.788Z,1021.84262692
2018-12-07T01:35:10.174Z,1021.94421857
2018-12-07T01:35:22.538Z,1021.94421857
2018-12-07T01:35:34.899Z,1021.94421857
2018-12-07T01:35:47.273Z,1021.94421857
2018-12-07T01:35:59.653Z,1021.94421857
2018-12-07T01:36:12.018Z,1021.77489916
2018-12-07T01:36:24.411Z,1021.77489916
2018-12-07T01:36:36.775Z,1021.77489916
2018-12-07T01:36:49.385Z,1021.77489916
2018-12-07T01:37:01.784Z,1021.84262692
2018-12-07T01:37:14.162Z,1021.84262692
2018-12-07T01:37:26.537Z,1021.84262692
2018-12-07T01:37:38.988Z,1021.84262692
2018-12-07T01:37:51.372Z,1021.84262692
2018-12-07T01:38:03.741Z,1021.84262692
2018-12-07T01:38:16.128Z,1021.84262692
2018-12-07T01:38:28.517Z,1021.84262692
2018-12-07T01:38:40.900Z,1021.84262692
2018-12-07T01:38:53.361Z,1021.84262692
2018-12-07T01:39:05.732Z,1021.91035469
2018-12-07T01:39:18.112Z,1021.91035469
2018-12-07T01:39:30.483Z,1021.91035469
2018-12-07T01:39:42.853Z,1021.91035469
2018-12-07T01:39:55.206Z,1021.91035469
2018-12-07T01:40:07.574Z,1021.8764908
2018-12-07T01:40:19.958Z,1021.8764908
2018-12-07T01:40:32.333Z,1021.8764908
2018-12-07T01:40:44.725Z,1021.8764908
2018-12-07T01:40:57.078Z,1021.8764908
2018-12-07T01:41:09.627Z,1021.80876304
2018-12-07T01:41:21.989Z,1021.80876304
2018-12-07T01:41:34.370Z,1021.80876304
2018-12-07T01:41:46.726Z,1021.80876304
2018-12-07T01:41:59.212Z,1021.80876304
2018-12-07T01:42:11.578Z,1021.8764908
2018-12-07T01:42:23.931Z,1021.8764908
2018-12-07T01:42:36.311Z,1021.8764908
2018-12-07T01:42:48.664Z,1021.8764908
2018-12-07T01:43:01.020Z,1021.84262692
2018-12-07T01:43:13.408Z,1021.84262692
2018-12-07T01:43:25.772Z,1021.84262692
2018-12-07T01:43:38.114Z,1021.84262692
2018-12-07T01:43:50.555Z,1021.84262692
2018-12-07T01:44:02.914Z,1021.84262692
2018-12-07T01:44:15.299Z,1021.84262692
2018-12-07T01:44:27.665Z,1021.84262692
2018-12-07T01:44:40.036Z,1021.84262692
2018-12-07T01:44:52.416Z,1021.84262692
2018-12-07T01:45:04.769Z,1021.84262692
2018-12-07T01:45:17.143Z,1021.84262692
2018-12-07T01:45:29.685Z,1021.84262692
2018-12-07T01:45:42.063Z,1021.84262692
2018-12-07T01:45:54.439Z,1021.84262692
2018-12-07T01:46:06.773Z,1021.91035469
2018-12-07T01:46:19.177Z,1021.91035469
2018-12-07T01:46:31.522Z,1021.91035469
2018-12-07T01:46:43.897Z,1021.91035469
2018-12-07T01:46:56.260Z,1021.91035469
2018-12-07T01:47:08.698Z,1021.8764908
2018-12-07T01:47:21.066Z,1021.8764908
2018-12-07T01:47:33.415Z,1021.8764908
2018-12-07T01:47:45.798Z,1021.8764908
2018-12-07T01:47:58.189Z,1021.8764908
2018-12-07T01:48:10.542Z,1021.84262692
2018-12-07T01:48:22.895Z,1021.84262692
2018-12-07T01:48:35.518Z,1021.84262692
2018-12-07T01:48:47.947Z,1021.84262692
2018-12-07T01:49:00.317Z,1021.84262692
2018-12-07T01:49:12.778Z,1021.84262692
2018-12-07T01:49:26.417Z,1021.84262692
2018-12-07T01:49:38.774Z,1021.84262692
2018-12-07T01:49:51.141Z,1021.84262692
2018-12-07T01:50:03.658Z,1021.74103528
2018-12-07T01:50:16.067Z,1021.74103528
2018-12-07T01:50:28.437Z,1021.74103528
2018-12-07T01:50:40.836Z,1021.74103528
2018-12-07T01:50:53.344Z,1021.74103528
2018-12-07T01:51:05.718Z,1021.77489916
2018-12-07T01:51:18.130Z,1021.77489916
2018-12-07T01:51:30.507Z,1021.77489916
2018-12-07T01:51:43.014Z,1021.77489916
2018-12-07T01:51:55.386Z,1021.77489916
2018-12-07T01:52:07.761Z,1021.7071714
2018-12-07T01:52:20.129Z,1021.7071714
2018-12-07T01:52:32.491Z,1021.7071714
2018-12-07T01:52:44.845Z,1021.7071714
2018-12-07T01:52:57.205Z,1021.7071714
2018-12-07T01:53:09.570Z,1021.80876304
2018-12-07T01:53:21.932Z,1021.80876304
2018-12-07T01:53:34.293Z,1021.80876304
2018-12-07T01:53:46.661Z,1021.80876304
2018-12-07T01:53:59.028Z,1021.80876304
2018-12-07T01:54:11.409Z,1021.7071714
2018-12-07T01:54:23.812Z,1021.7071714
2018-12-07T01:54:36.185Z,1021.7071714
2018-12-07T01:54:48.631Z,1021.7071714
2018-12-07T01:55:00.968Z,1021.74103528
2018-12-07T01:55:13.403Z,1021.74103528
2018-12-07T01:55:25.768Z,1021.74103528
2018-12-07T01:55:38.124Z,1021.74103528
2018-12-07T01:55:50.492Z,1021.74103528
2018-12-07T01:56:02.853Z,1021.74103528
2018-12-07T01:56:15.224Z,1021.74103528
2018-12-07T01:56:27.580Z,1021.74103528
2018-12-07T01:56:39.976Z,1021.74103528
2018-12-07T01:56:52.329Z,1021.74103528
2018-12-07T01:57:04.720Z,1021.67330751
2018-12-07T01:57:17.108Z,1021.67330751
2018-12-07T01:57:29.547Z,1021.67330751
2018-12-07T01:57:41.902Z,1021.67330751
2018-12-07T01:57:54.285Z,1021.67330751
2018-12-07T01:58:06.636Z,1021.63944363
2018-12-07T01:58:19.082Z,1021.63944363
2018-12-07T01:58:31.450Z,1021.63944363
2018-12-07T01:58:43.821Z,1021.63944363
2018-12-07T01:58:56.171Z,1021.63944363
2018-12-07T01:59:08.524Z,1021.63944363
2018-12-07T01:59:20.859Z,1021.63944363
2018-12-07T01:59:33.244Z,1021.63944363
2018-12-07T01:59:45.611Z,1021.63944363
2018-12-07T01:59:57.984Z,1021.63944363
2018-12-07T02:00:10.379Z,1021.67330751
2018-12-07T02:00:22.801Z,1021.67330751
2018-12-07T02:00:35.192Z,1021.67330751
2018-12-07T02:00:47.604Z,1021.67330751
2018-12-07T02:00:59.987Z,1021.67330751
2018-12-07T02:01:12.399Z,1021.60557975
2018-12-07T02:01:24.784Z,1021.60557975
2018-12-07T02:01:37.462Z,1021.60557975
2018-12-07T02:01:49.835Z,1021.60557975
2018-12-07T02:02:02.353Z,1021.67330751
2018-12-07T02:02:14.713Z,1021.67330751
2018-12-07T02:02:27.069Z,1021.67330751
2018-12-07T02:02:39.466Z,1021.67330751
2018-12-07T02:02:51.828Z,1021.67330751
2018-12-07T02:03:04.195Z,1021.63944363
2018-12-07T02:03:16.868Z,1021.63944363
2018-12-07T02:03:29.215Z,1021.63944363
2018-12-07T02:03:41.594Z,1021.63944363
2018-12-07T02:03:53.948Z,1021.63944363
2018-12-07T02:04:06.373Z,1021.60557975
2018-12-07T02:04:18.726Z,1021.60557975
2018-12-07T02:04:31.079Z,1021.60557975
2018-12-07T02:04:43.443Z,1021.60557975
2018-12-07T02:04:55.810Z,1021.60557975
2018-12-07T02:05:08.170Z,1021.53785199
2018-12-07T02:05:20.533Z,1021.53785199
2018-12-07T02:05:32.910Z,1021.53785199
2018-12-07T02:05:45.276Z,1021.53785199
2018-12-07T02:05:57.632Z,1021.53785199
2018-12-07T02:06:10.030Z,1021.47012423
2018-12-07T02:06:22.398Z,1021.47012423
2018-12-07T02:06:34.876Z,1021.47012423
2018-12-07T02:06:47.225Z,1021.47012423
2018-12-07T02:06:59.591Z,1021.47012423
2018-12-07T02:07:11.947Z,1021.47012423
2018-12-07T02:07:24.306Z,1021.47012423